createdAt,value
2023-05-21T00:00:51.996Z,1005.6
2023-05-21T00:02:16.732Z,1005.6
2023-05-21T00:03:35.747Z,1005.6
2023-05-21T00:05:14.612Z,1005.6
2023-05-21T00:06:30.915Z,1005.6
2023-05-21T00:08:02.836Z,1005.6
2023-05-21T00:09:21.927Z,1005.6
2023-05-21T00:10:42.273Z,1005.6
2023-05-21T00:12:10.851Z,1005.6
2023-05-21T00:13:35.767Z,1005.6
2023-05-21T00:14:58.891Z,1005.6
2023-05-21T00:16:19.084Z,1005.7
2023-05-21T00:17:38.577Z,1005.6
2023-05-21T00:18:57.721Z,1005.7
2023-05-21T00:20:29.273Z,1005.6
2023-05-21T00:21:55.650Z,1005.6
2023-05-21T00:23:19.969Z,1005.6
2023-05-21T00:24:48.315Z,1005.6
2023-05-21T00:26:12.755Z,1005.6
2023-05-21T00:27:33.696Z,1005.6
2023-05-21T00:28:57.259Z,1005.5
2023-05-21T00:30:20.907Z,1005.5
2023-05-21T00:31:42.083Z,1005.5
2023-05-21T00:33:07.171Z,1005.5
2023-05-21T00:36:07.355Z,1005.5
2023-05-21T00:37:26.663Z,1005.6
2023-05-21T00:38:49.820Z,1005.5
2023-05-21T00:40:16.147Z,1005.5
2023-05-21T00:41:41.734Z,1005.5
2023-05-21T00:43:05.929Z,1005.5
2023-05-21T00:44:25.138Z,1005.5
2023-05-21T00:45:46.904Z,1005.6
2023-05-21T00:47:08.098Z,1005.6
2023-05-21T00:48:26.366Z,1005.6
2023-05-21T00:49:52.462Z,1005.6
2023-05-21T00:51:12.416Z,1005.6
2023-05-21T00:52:34.908Z,1005.5
2023-05-21T00:54:06.297Z,1005.5
2023-05-21T00:55:28.219Z,1005.5
2023-05-21T00:58:19.714Z,1005.5
2023-05-21T00:59:40.797Z,1005.6
2023-05-21T01:01:05.997Z,1005.5
2023-05-21T01:02:37.276Z,1005.5
2023-05-21T01:04:06.682Z,1005.5
2023-05-21T01:05:43.440Z,1005.5
2023-05-21T01:07:09.741Z,1005.5
2023-05-21T01:08:49.185Z,1005.5
2023-05-21T01:10:14.595Z,1005.4
2023-05-21T01:11:43.039Z,1005.4
2023-05-21T01:13:18.836Z,1005.4
2023-05-21T01:14:47.787Z,1005.4
2023-05-21T01:16:10.113Z,1005.4
2023-05-21T01:17:31.963Z,1005.4
2023-05-21T01:19:00.858Z,1005.4
2023-05-21T01:20:34.901Z,1005.4
2023-05-21T01:22:00.994Z,1005.3
2023-05-21T01:23:21.020Z,1005.3
2023-05-21T01:24:43.887Z,1005.3
2023-05-21T01:26:04.763Z,1005.3
2023-05-21T01:27:24.805Z,1005.3
2023-05-21T01:28:47.078Z,1005.4
2023-05-21T01:30:12.254Z,1005.3
2023-05-21T01:31:40.682Z,1005.3
2023-05-21T01:34:44.941Z,1005.3
2023-05-21T01:36:10.039Z,1005.2
2023-05-21T01:37:41.845Z,1005.2
2023-05-21T01:39:00.991Z,1005.2
2023-05-21T01:40:21.711Z,1005.2
2023-05-21T01:41:39.232Z,1005.2
2023-05-21T01:43:00.346Z,1005.3
2023-05-21T01:44:23.992Z,1005.3
2023-05-21T01:45:45.813Z,1005.1
2023-05-21T01:47:04.002Z,1005.2
2023-05-21T01:48:43.099Z,1005.2
2023-05-21T01:50:04.814Z,1005.2
2023-05-21T01:51:22.845Z,1005.3
2023-05-21T01:52:46.239Z,1005.2
2023-05-21T01:54:14.328Z,1005.2
2023-05-21T01:55:38.237Z,1005.2
2023-05-21T01:56:57.827Z,1005.2
2023-05-21T01:58:17.251Z,1005.2
2023-05-21T01:59:37.860Z,1005.1
2023-05-21T02:01:08.333Z,1005.1
2023-05-21T02:02:30.230Z,1005.1
2023-05-21T02:04:05.219Z,1005.1
2023-05-21T02:05:26.186Z,1005
2023-05-21T02:06:47.775Z,1005
2023-05-21T02:09:31.098Z,1005
2023-05-21T02:10:52.174Z,1005
2023-05-21T02:12:15.856Z,1005.1
2023-05-21T02:13:39.138Z,1005.1
2023-05-21T02:15:07.492Z,1005.1
2023-05-21T02:16:29.068Z,1005.1
2023-05-21T02:19:19.252Z,1005.1
2023-05-21T02:20:45.110Z,1005.1
2023-05-21T02:22:09.121Z,1005.1
2023-05-21T02:23:26.130Z,1005.1
2023-05-21T02:24:57.602Z,1005.1
2023-05-21T02:26:26.263Z,1005.1
2023-05-21T02:27:47.254Z,1005
2023-05-21T02:29:13.429Z,1005
2023-05-21T02:30:36.726Z,1005
2023-05-21T02:32:07.052Z,1005.1
2023-05-21T02:33:41.216Z,1005.1
2023-05-21T02:35:04.197Z,1005
2023-05-21T02:36:22.930Z,1005
2023-05-21T02:37:46.406Z,1005
2023-05-21T02:39:06.106Z,1005
2023-05-21T02:40:33.432Z,1005.1
2023-05-21T02:41:54.113Z,1005
2023-05-21T02:43:15.999Z,1005
2023-05-21T02:44:31.452Z,1005
2023-05-21T02:46:09.566Z,1005.1
2023-05-21T02:47:32.274Z,1005.1
2023-05-21T02:49:00.329Z,1005
2023-05-21T02:50:28.919Z,1005
2023-05-21T02:52:03.824Z,1005
2023-05-21T02:53:34.018Z,1005
2023-05-21T02:54:57.906Z,1005
2023-05-21T02:56:19.048Z,1005
2023-05-21T02:57:43.182Z,1005
2023-05-21T02:59:05.126Z,1005
2023-05-21T03:00:26.850Z,1005
2023-05-21T03:01:45.353Z,1005
2023-05-21T03:03:06.291Z,1004.9
2023-05-21T03:04:28.993Z,1004.9
2023-05-21T03:05:55.169Z,1004.9
2023-05-21T03:07:22.431Z,1004.9
2023-05-21T03:08:51.102Z,1005
2023-05-21T03:10:11.136Z,1004.9
2023-05-21T03:11:38.427Z,1004.9
2023-05-21T03:12:59.187Z,1004.9
2023-05-21T03:14:19.163Z,1004.9
2023-05-21T03:15:38.482Z,1004.9
2023-05-21T03:16:59.435Z,1004.9
2023-05-21T03:18:18.119Z,1004.9
2023-05-21T03:19:41.451Z,1004.9
2023-05-21T03:21:05.917Z,1004.9
2023-05-21T03:22:27.127Z,1004.9
2023-05-21T03:23:58.427Z,1004.9
2023-05-21T03:25:24.631Z,1004.9
2023-05-21T03:26:50.782Z,1004.9
2023-05-21T03:28:19.924Z,1004.9
2023-05-21T03:29:40.981Z,1004.9
2023-05-21T03:31:06.286Z,1004.9
2023-05-21T03:32:26.253Z,1004.8
2023-05-21T03:33:54.266Z,1004.9
2023-05-21T03:35:18.188Z,1004.9
2023-05-21T03:36:35.970Z,1004.9
2023-05-21T03:37:59.296Z,1004.9
2023-05-21T03:40:49.319Z,1004.9
2023-05-21T03:42:11.198Z,1004.9
2023-05-21T03:43:29.649Z,1004.9
2023-05-21T03:44:56.894Z,1004.9
2023-05-21T03:46:18.420Z,1004.9
2023-05-21T03:47:37.379Z,1004.9
2023-05-21T03:49:00.138Z,1005
2023-05-21T03:50:23.275Z,1004.9
2023-05-21T03:51:41.992Z,1004.9
2023-05-21T03:53:00.019Z,1004.9
2023-05-21T03:54:30.294Z,1004.9
2023-05-21T03:55:55.554Z,1004.9
2023-05-21T03:57:22.063Z,1004.9
2023-05-21T03:58:45.650Z,1005
2023-05-21T04:00:17.121Z,1005
2023-05-21T04:01:47.055Z,1005
2023-05-21T04:03:16.342Z,1005
2023-05-21T04:04:34.124Z,1005
2023-05-21T04:06:01.487Z,1005
2023-05-21T04:07:20.384Z,1005
2023-05-21T04:08:42.787Z,1005.1
2023-05-21T04:10:03.209Z,1005.1
2023-05-21T04:11:23.289Z,1005.1
2023-05-21T04:12:53.532Z,1005
2023-05-21T04:14:15.343Z,1005
2023-05-21T04:15:33.319Z,1005
2023-05-21T04:16:55.271Z,1005
2023-05-21T04:18:18.258Z,1005
2023-05-21T04:19:41.282Z,1005
2023-05-21T04:21:02.875Z,1005
2023-05-21T04:22:25.332Z,1005.1
2023-05-21T04:23:58.050Z,1005
2023-05-21T04:25:19.310Z,1005.1
2023-05-21T04:26:40.512Z,1005.1
2023-05-21T04:27:58.092Z,1005
2023-05-21T04:29:18.274Z,1005.1
2023-05-21T04:30:37.342Z,1005.1
2023-05-21T04:31:58.541Z,1005.1
2023-05-21T04:33:17.108Z,1005.1
2023-05-21T04:34:47.275Z,1005.1
2023-05-21T04:36:09.434Z,1005.2
2023-05-21T04:37:28.384Z,1005.1
2023-05-21T04:38:59.047Z,1005.1
2023-05-21T04:40:23.367Z,1005.1
2023-05-21T04:41:52.049Z,1005.1
2023-05-21T04:43:16.565Z,1005.1
2023-05-21T04:44:41.107Z,1005.1
2023-05-21T04:46:00.340Z,1005.1
2023-05-21T04:47:20.302Z,1005.1
2023-05-21T04:48:43.235Z,1005.1
2023-05-21T04:50:08.748Z,1005.1
2023-05-21T04:51:31.130Z,1005.1
2023-05-21T04:52:59.266Z,1005.1
2023-05-21T04:54:24.701Z,1005
2023-05-21T04:55:44.398Z,1005
2023-05-21T04:57:13.155Z,1005.1
2023-05-21T04:58:36.239Z,1005
2023-05-21T05:00:01.587Z,1005
2023-05-21T05:01:27.587Z,1005.1
2023-05-21T05:02:50.683Z,1005.1
2023-05-21T05:04:09.506Z,1005
2023-05-21T05:05:30.176Z,1004.9
2023-05-21T05:06:52.718Z,1005
2023-05-21T05:08:11.447Z,1005
2023-05-21T05:09:33.405Z,1005
2023-05-21T05:10:58.797Z,1005
2023-05-21T05:12:33.023Z,1005
2023-05-21T05:13:54.253Z,1005
2023-05-21T05:15:11.155Z,1005
2023-05-21T05:16:41.326Z,1005
2023-05-21T05:17:58.197Z,1005.1
2023-05-21T05:19:26.642Z,1005.1
2023-05-21T05:20:46.782Z,1005
2023-05-21T05:24:14.701Z,1005
2023-05-21T05:25:33.376Z,1005
2023-05-21T05:27:05.624Z,1005
2023-05-21T05:28:37.418Z,1005
2023-05-21T05:30:11.557Z,1005
2023-05-21T05:31:36.663Z,1005
2023-05-21T05:32:58.407Z,1005
2023-05-21T05:34:23.389Z,1005
2023-05-21T05:35:46.054Z,1005
2023-05-21T05:37:27.981Z,1005
2023-05-21T05:38:55.116Z,1004.9
2023-05-21T05:40:16.656Z,1004.9
2023-05-21T05:41:47.891Z,1004.9
2023-05-21T05:43:15.665Z,1004.9
2023-05-21T05:44:44.310Z,1004.9
2023-05-21T05:46:03.302Z,1004.9
2023-05-21T05:47:31.028Z,1004.9
2023-05-21T05:48:56.921Z,1004.9
2023-05-21T05:50:19.353Z,1004.9
2023-05-21T05:51:42.664Z,1004.9
2023-05-21T05:53:04.308Z,1004.9
2023-05-21T05:54:32.760Z,1004.9
2023-05-21T05:55:53.503Z,1004.9
2023-05-21T05:57:28.718Z,1004.8
2023-05-21T05:58:59.354Z,1004.8
2023-05-21T06:00:27.786Z,1004.8
2023-05-21T06:01:47.473Z,1004.8
2023-05-21T06:03:08.603Z,1004.8
2023-05-21T06:04:34.554Z,1004.8
2023-05-21T06:06:04.525Z,1004.8
2023-05-21T06:08:57.367Z,1004.8
2023-05-21T06:10:21.668Z,1004.8
2023-05-21T06:11:42.815Z,1004.8
2023-05-21T06:13:05.713Z,1004.8
2023-05-21T06:14:32.456Z,1004.8
2023-05-21T06:15:53.175Z,1004.8
2023-05-21T06:17:15.604Z,1004.8
2023-05-21T06:18:33.328Z,1004.8
2023-05-21T06:19:50.529Z,1004.8
2023-05-21T06:21:07.296Z,1004.8
2023-05-21T06:22:30.144Z,1004.7
2023-05-21T06:23:54.733Z,1004.7
2023-05-21T06:25:18.401Z,1004.8
2023-05-21T06:26:47.311Z,1004.8
2023-05-21T06:28:10.503Z,1004.8
2023-05-21T06:29:33.282Z,1004.8
2023-05-21T06:32:23.054Z,1004.8
2023-05-21T06:33:57.651Z,1004.8
2023-05-21T06:35:31.501Z,1004.8
2023-05-21T06:37:02.029Z,1004.8
2023-05-21T06:38:24.867Z,1004.8
2023-05-21T06:42:49.450Z,1004.7
2023-05-21T06:44:15.334Z,1004.7
2023-05-21T06:45:32.389Z,1004.6
2023-05-21T06:46:58.650Z,1004.6
2023-05-21T06:48:29.780Z,1004.5
2023-05-21T06:49:56.385Z,1004.5
2023-05-21T06:51:15.377Z,1004.4
2023-05-21T06:52:35.024Z,1004.4
2023-05-21T06:53:57.775Z,1004.3
2023-05-21T06:55:21.508Z,1004.3
2023-05-21T06:56:43.733Z,1004.2
2023-05-21T06:58:10.898Z,1004.2
2023-05-21T06:59:38.187Z,1004.2
2023-05-21T07:01:07.825Z,1004.2
2023-05-21T07:02:39.278Z,1004.2
2023-05-21T07:04:00.828Z,1004.2
2023-05-21T07:05:27.608Z,1004.1
2023-05-21T07:06:54.910Z,1004.1
2023-05-21T07:08:19.075Z,1004.2
2023-05-21T07:09:48.365Z,1004.2
2023-05-21T07:11:06.876Z,1004.2
2023-05-21T07:12:28.163Z,1004.2
2023-05-21T07:13:51.580Z,1004.2
2023-05-21T07:15:11.293Z,1004.1
2023-05-21T07:16:28.588Z,1004.1
2023-05-21T07:17:50.979Z,1004.1
2023-05-21T07:19:15.900Z,1004.1
2023-05-21T07:20:43.315Z,1004.1
2023-05-21T07:22:00.629Z,1004.1
2023-05-21T07:23:19.827Z,1004.1
2023-05-21T07:24:39.373Z,1004.1
2023-05-21T07:25:58.415Z,1004.1
2023-05-21T07:27:26.384Z,1004.1
2023-05-21T07:28:56.976Z,1004.1
2023-05-21T07:30:25.629Z,1004.2
2023-05-21T07:31:48.431Z,1004.2
2023-05-21T07:33:07.652Z,1004.2
2023-05-21T07:34:29.506Z,1004.2
2023-05-21T07:35:47.471Z,1004.1
2023-05-21T07:37:16.296Z,1004.1
2023-05-21T07:40:05.344Z,1004.1
2023-05-21T07:41:31.677Z,1004.1
2023-05-21T07:44:28.698Z,1004.2
2023-05-21T07:45:51.530Z,1004.2
2023-05-21T07:47:23.050Z,1004.2
2023-05-21T07:48:47.326Z,1004.2
2023-05-21T07:50:08.573Z,1004.2
2023-05-21T07:51:36.379Z,1004.2
2023-05-21T07:53:05.678Z,1004.2
2023-05-21T07:54:24.488Z,1004.2
2023-05-21T07:55:54.300Z,1004.2
2023-05-21T07:57:26.329Z,1004.2
2023-05-21T07:58:57.949Z,1004.2
2023-05-21T08:00:22.220Z,1004.3
2023-05-21T08:03:14.133Z,1004.3
2023-05-21T08:04:41.081Z,1004.3
2023-05-21T08:06:09.113Z,1004.2
2023-05-21T08:07:34.943Z,1004.3
2023-05-21T08:08:54.712Z,1004.2
2023-05-21T08:10:19.191Z,1004.3
2023-05-21T08:11:40.753Z,1004.3
2023-05-21T08:13:00.596Z,1004.3
2023-05-21T08:14:30.398Z,1004.3
2023-05-21T08:15:53.245Z,1004.3
2023-05-21T08:17:20.668Z,1004.3
2023-05-21T08:18:43.985Z,1004.3
2023-05-21T08:20:11.563Z,1004.3
2023-05-21T08:21:33.545Z,1004.3
2023-05-21T08:22:56.394Z,1004.2
2023-05-21T08:24:14.717Z,1004.3
2023-05-21T08:25:42.933Z,1004.3
2023-05-21T08:27:00.759Z,1004.3
2023-05-21T08:28:26.992Z,1004.3
2023-05-21T08:29:48.199Z,1004.3
2023-05-21T08:31:11.864Z,1004.3
2023-05-21T08:32:37.480Z,1004.3
2023-05-21T08:33:57.092Z,1004.3
2023-05-21T08:35:25.797Z,1004.2
2023-05-21T08:36:49.341Z,1004.3
2023-05-21T08:38:10.782Z,1004.3
2023-05-21T08:39:33.220Z,1004.3
2023-05-21T08:40:53.810Z,1004.3
2023-05-21T08:42:19.919Z,1004.3
2023-05-21T08:43:50.425Z,1004.3
2023-05-21T08:45:10.452Z,1004.3
2023-05-21T08:46:30.605Z,1004.3
2023-05-21T08:47:57.253Z,1004.3
2023-05-21T08:49:20.830Z,1004.3
2023-05-21T08:50:42.839Z,1004.3
2023-05-21T08:52:06.759Z,1004.3
2023-05-21T08:53:29.139Z,1004.3
2023-05-21T08:54:43.968Z,1004.4
2023-05-21T08:56:05.242Z,1004.4
2023-05-21T08:57:24.956Z,1004.4
2023-05-21T08:58:50.361Z,1004.4
2023-05-21T09:00:11.957Z,1004.4
2023-05-21T09:01:30.042Z,1004.4
2023-05-21T09:02:47.046Z,1004.3
2023-05-21T09:04:19.362Z,1004.4
2023-05-21T09:05:26.752Z,1004.4
2023-05-21T09:06:53.540Z,1004.3
2023-05-21T09:08:11.219Z,1004.3
2023-05-21T09:09:35.307Z,1004.3
2023-05-21T09:11:02.909Z,1004.4
2023-05-21T09:12:21.833Z,1004.4
2023-05-21T09:13:46.709Z,1004.4
2023-05-21T09:15:07.668Z,1004.4
2023-05-21T09:16:26.064Z,1004.4
2023-05-21T09:17:44.843Z,1004.4
2023-05-21T09:19:04.806Z,1004.4
2023-05-21T09:20:29.600Z,1004.4
2023-05-21T09:21:52.434Z,1004.4
2023-05-21T09:23:15.812Z,1004.4
2023-05-21T09:24:37.616Z,1004.4
2023-05-21T09:25:59.673Z,1004.4
2023-05-21T09:27:20.124Z,1004.5
2023-05-21T09:28:56.281Z,1004.5
2023-05-21T09:30:36.198Z,1004.4
2023-05-21T09:32:01.892Z,1004.4
2023-05-21T09:33:20.061Z,1004.4
2023-05-21T09:34:39.763Z,1004.5
2023-05-21T09:36:05.910Z,1004.4
2023-05-21T09:37:43.438Z,1004.5
2023-05-21T09:39:09.415Z,1004.4
2023-05-21T09:40:29.598Z,1004.4
2023-05-21T09:41:47.881Z,1004.4
2023-05-21T09:43:20.231Z,1004.3
2023-05-21T09:44:39.520Z,1004.4
2023-05-21T09:46:07.020Z,1004.4
2023-05-21T09:47:25.317Z,1004.4
2023-05-21T09:48:47.499Z,1004.4
2023-05-21T09:50:16.342Z,1004.4
2023-05-21T09:51:39.172Z,1004.4
2023-05-21T09:53:09.791Z,1004.4
2023-05-21T09:54:29.238Z,1004.4
2023-05-21T09:56:02.556Z,1004.3
2023-05-21T09:57:30.367Z,1004.3
2023-05-21T09:58:52.027Z,1004.3
2023-05-21T10:00:08.114Z,1004.3
2023-05-21T10:01:28.172Z,1004.3
2023-05-21T10:02:50.004Z,1004.3
